Time;durP1;ratioP1;P1;durP2;ratioP2;P2;SDS_P1;SDS_P2;PMS_P1;PMS_P2;Temp;Humidity;BMP_temperature;BMP_pressure;BME280_temperature;BME280_humidity;BME280_pressure;Samples;Min_cycle;Max_cycle;Signal;HPM_P1;HPM_P2
2021/12/10 00:02:08;;;;;;;12.70;4.33;;;5.70;99.90;;;;;;4975917;28;20580;-77
2021/12/10 00:04:36;;;;;;;6.72;3.45;;;5.80;99.90;;;;;;4975746;28;20755;-77
2021/12/10 00:07:10;;;;;;;4.13;3.20;;;5.70;99.90;;;;;;4975252;28;20194;-78
2021/12/10 00:09:40;;;;;;;13.82;3.35;;;5.50;99.90;;;;;;4975590;28;20181;-79
2021/12/10 00:12:15;;;;;;;11.23;3.33;;;5.50;99.90;;;;;;4975740;28;20169;-77
2021/12/10 00:14:41;;;;;;;7.68;3.78;;;5.50;99.90;;;;;;4975834;28;20248;-78
2021/12/10 00:17:10;;;;;;;11.15;3.65;;;5.60;99.90;;;;;;4975234;28;20213;-77
2021/12/10 00:19:43;;;;;;;6.68;2.83;;;5.70;99.90;;;;;;4975542;28;20180;-79
2021/12/10 00:22:14;;;;;;;5.70;2.95;;;5.60;99.90;;;;;;4975079;28;20245;-78
2021/12/10 00:24:42;;;;;;;9.80;3.08;;;5.70;99.90;;;;;;4975023;28;20575;-82
2021/12/10 00:27:09;;;;;;;12.65;2.72;;;5.80;99.90;;;;;;4975224;28;20216;-78
2021/12/10 00:29:37;;;;;;;6.72;2.67;;;5.90;99.90;;;;;;4975534;28;20624;-77
2021/12/10 00:32:15;;;;;;;4.03;2.63;;;5.70;99.90;;;;;;4974841;28;20181;-78
2021/12/10 00:34:49;;;;;;;8.50;2.33;;;5.60;99.90;;;;;;4975567;28;20256;-79
2021/12/10 00:37:18;;;;;;;3.28;2.20;;;5.80;99.90;;;;;;4957407;28;20204;-78
2021/12/10 00:39:49;;;;;;;15.55;3.03;;;5.90;99.90;;;;;;4957659;28;20538;-78
2021/12/10 00:42:17;;;;;;;4.28;2.42;;;6.00;99.90;;;;;;4975092;28;20198;-77
2021/12/10 00:44:43;;;;;;;7.07;2.72;;;5.90;99.90;;;;;;4957683;28;20176;-78
2021/12/10 00:47:09;;;;;;;3.58;2.08;;;5.80;99.90;;;;;;4974840;28;20272;-78
2021/12/10 00:49:35;;;;;;;5.85;2.38;;;5.70;99.90;;;;;;4974881;28;20620;-77
2021/12/10 00:52:03;;;;;;;7.82;2.20;;;5.70;99.90;;;;;;4957323;28;20181;-78
2021/12/10 00:54:29;;;;;;;7.47;2.50;;;5.70;99.90;;;;;;4974860;28;20166;-77
2021/12/10 00:56:54;;;;;;;5.97;1.95;;;5.70;99.90;;;;;;4974628;28;20548;-78
2021/12/10 00:59:20;;;;;;;5.20;2.00;;;5.70;99.90;;;;;;4974436;28;20162;-78
2021/12/10 01:01:47;;;;;;;4.07;2.40;;;5.80;99.90;;;;;;4974704;28;20178;-80
2021/12/10 01:04:15;;;;;;;5.65;2.35;;;5.80;99.90;;;;;;4974657;28;20216;-78
2021/12/10 01:06:45;;;;;;;6.68;2.35;;;5.90;99.90;;;;;;4974529;28;20186;-78
2021/12/10 01:09:20;;;;;;;4.97;2.35;;;5.80;99.90;;;;;;4957352;28;20181;-77
2021/12/10 01:11:52;;;;;;;6.80;1.63;;;5.80;99.90;;;;;;4974564;28;20158;-77
2021/12/10 01:14:33;;;;;;;8.73;2.00;;;5.90;99.90;;;;;;4957404;28;20174;-79
2021/12/10 01:25:38;;;;;;;6.85;1.50;;;5.90;99.90;;;;;;4974222;28;20261;-77
2021/12/10 01:28:07;;;;;;;2.70;1.65;;;5.90;99.90;;;;;;4974136;28;20189;-78
2021/12/10 01:30:37;;;;;;;6.05;1.67;;;5.90;99.90;;;;;;4973060;28;20216;-77
2021/12/10 01:33:08;;;;;;;9.25;1.65;;;5.90;99.90;;;;;;4974344;28;20166;-78
2021/12/10 01:35:42;;;;;;;2.60;1.65;;;5.90;99.90;;;;;;4974185;28;20166;-77
2021/12/10 01:38:11;;;;;;;2.63;1.63;;;5.90;99.90;;;;;;4973957;28;20221;-78
2021/12/10 01:40:41;;;;;;;2.15;1.88;;;5.90;99.90;;;;;;4974390;28;20715;-78
2021/12/10 01:43:11;;;;;;;5.80;1.60;;;6.00;99.90;;;;;;4957215;28;20213;-78
2021/12/10 01:45:46;;;;;;;1.45;1.23;;;6.00;99.90;;;;;;4973951;28;20252;-78
2021/12/10 01:48:17;;;;;;;10.95;1.60;;;6.00;99.90;;;;;;4956501;28;20663;-81
2021/12/10 01:50:43;;;;;;;1.77;1.13;;;6.00;99.90;;;;;;4956748;28;20544;-77
2021/12/10 01:53:12;;;;;;;5.18;1.23;;;6.10;99.90;;;;;;4956824;28;20265;-77
2021/12/10 01:55:40;;;;;;;5.32;1.40;;;6.10;99.90;;;;;;4980327;28;20157;-79
2021/12/10 01:58:09;;;;;;;3.00;1.42;;;6.10;99.90;;;;;;4979151;28;20189;-77
2021/12/10 02:00:39;;;;;;;2.70;2.15;;;5.90;99.90;;;;;;4996198;28;20205;-78
2021/12/10 02:03:05;;;;;;;1.77;1.45;;;6.00;99.90;;;;;;4995971;28;20276;-77
2021/12/10 02:05:31;;;;;;;2.17;1.00;;;6.10;99.90;;;;;;4969327;28;20640;-78
2021/12/10 02:07:58;;;;;;;7.97;1.23;;;6.00;99.90;;;;;;4957974;28;20194;-77
2021/12/10 02:10:26;;;;;;;6.18;1.50;;;6.00;99.90;;;;;;4974980;28;20196;-78
2021/12/10 02:12:52;;;;;;;3.80;1.30;;;6.10;99.90;;;;;;4976051;28;20528;-76
2021/12/10 02:15:21;;;;;;;0.82;0.70;;;6.20;99.90;;;;;;4977516;28;20170;-81
2021/12/10 02:17:49;;;;;;;2.90;1.10;;;6.10;99.90;;;;;;4977696;28;20220;-83
2021/12/10 02:20:22;;;;;;;2.70;1.10;;;6.10;99.90;;;;;;4978633;28;20189;-78
2021/12/10 02:22:49;;;;;;;5.35;1.00;;;6.00;99.90;;;;;;4978015;28;20205;-78
2021/12/10 02:25:19;;;;;;;1.38;0.90;;;6.00;99.90;;;;;;4978295;28;20261;-81
2021/12/10 02:27:44;;;;;;;1.10;0.60;;;6.10;99.90;;;;;;4979130;28;20664;-78
2021/12/10 02:30:13;;;;;;;1.48;0.90;;;6.10;99.90;;;;;;4962008;28;20180;-78
2021/12/10 02:32:39;;;;;;;1.63;0.60;;;6.10;99.90;;;;;;4981847;28;20146;-80
2021/12/10 02:35:07;;;;;;;4.18;0.98;;;6.00;99.90;;;;;;4991875;28;20153;-77
2021/12/10 02:37:34;;;;;;;1.00;0.65;;;6.10;99.90;;;;;;4990578;28;20193;-77
2021/12/10 02:40:00;;;;;;;2.63;0.60;;;6.00;99.90;;;;;;4992110;28;20170;-78
2021/12/10 02:42:25;;;;;;;3.20;0.82;;;5.90;99.90;;;;;;4990876;28;20810;-77
2021/12/10 02:44:51;;;;;;;1.98;0.77;;;6.10;99.90;;;;;;4977665;28;20312;-78
2021/12/10 02:47:20;;;;;;;1.58;0.70;;;6.10;99.90;;;;;;4977131;28;20221;-77
2021/12/10 02:49:46;;;;;;;3.67;0.85;;;6.00;99.90;;;;;;4977318;28;20169;-77
2021/12/10 02:52:13;;;;;;;0.65;0.60;;;5.90;99.90;;;;;;4977499;28;20288;-77
2021/12/10 02:54:39;;;;;;;1.77;0.68;;;5.80;99.90;;;;;;4977995;28;20178;-76
2021/12/10 02:57:11;;;;;;;3.58;0.60;;;5.80;99.90;;;;;;4977344;28;20256;-84
2021/12/10 02:59:38;;;;;;;2.85;0.75;;;5.70;99.90;;;;;;4977204;28;20594;-85
2021/12/10 03:02:07;;;;;;;3.92;0.70;;;5.80;99.90;;;;;;4977027;28;20166;-77
2021/12/10 03:04:34;;;;;;;2.72;0.75;;;6.00;99.90;;;;;;4977187;28;20166;-78
2021/12/10 03:07:03;;;;;;;2.60;0.60;;;5.90;99.90;;;;;;4976580;28;20186;-77
2021/12/10 03:09:29;;;;;;;1.60;0.70;;;6.00;99.90;;;;;;4976714;28;20181;-77
2021/12/10 03:11:58;;;;;;;3.55;0.80;;;6.00;99.90;;;;;;4976936;28;20252;-83
2021/12/10 03:14:28;;;;;;;0.40;0.40;;;6.00;99.90;;;;;;4976475;28;20170;-76
2021/12/10 03:16:56;;;;;;;1.17;0.70;;;5.90;99.90;;;;;;4975462;28;20193;-77
2021/12/10 03:19:22;;;;;;;0.95;0.60;;;5.80;99.90;;;;;;4976960;28;20189;-77
2021/12/10 03:21:51;;;;;;;2.78;0.60;;;5.70;99.90;;;;;;4976299;28;20193;-77
2021/12/10 03:24:20;;;;;;;0.95;0.47;;;5.60;99.90;;;;;;4976242;28;20232;-84
2021/12/10 03:26:46;;;;;;;1.20;0.68;;;5.70;99.90;;;;;;4959086;28;20703;-81
2021/12/10 03:29:12;;;;;;;1.95;0.75;;;5.70;99.90;;;;;;4976208;28;20173;-77
2021/12/10 03:31:39;;;;;;;1.20;0.55;;;5.50;99.90;;;;;;4976555;28;20166;-82
2021/12/10 03:34:06;;;;;;;2.30;0.60;;;5.50;99.90;;;;;;4976548;28;20228;-77
2021/12/10 03:36:32;;;;;;;1.80;0.63;;;5.40;99.90;;;;;;4959307;28;20232;-77
2021/12/10 03:38:58;;;;;;;4.30;0.70;;;5.40;99.90;;;;;;4976468;28;20162;-84
2021/12/10 03:41:24;;;;;;;0.80;0.60;;;5.30;99.90;;;;;;4976276;28;20189;-76
2021/12/10 03:43:53;;;;;;;4.93;0.50;;;5.30;99.90;;;;;;4976349;28;20210;-78
2021/12/10 03:46:20;;;;;;;1.40;0.43;;;5.30;99.90;;;;;;4976285;28;20190;-78
2021/12/10 03:48:46;;;;;;;0.73;0.50;;;5.30;99.90;;;;;;4975996;28;20166;-76
2021/12/10 03:51:15;;;;;;;2.83;0.50;;;5.20;99.90;;;;;;4958875;28;20172;-76
2021/12/10 03:53:41;;;;;;;2.38;0.70;;;5.30;99.90;;;;;;4976069;28;20530;-79
2021/12/10 03:56:11;;;;;;;0.50;0.50;;;5.40;99.90;;;;;;4975698;28;20173;-78
2021/12/10 03:58:37;;;;;;;0.73;0.73;;;5.20;99.90;;;;;;4976207;28;20162;-76
2021/12/10 04:01:05;;;;;;;0.93;0.60;;;5.10;99.90;;;;;;4976127;28;20229;-76
2021/12/10 04:03:32;;;;;;;0.88;0.60;;;5.30;99.90;;;;;;4975748;28;20237;-83
2021/12/10 04:05:58;;;;;;;4.05;0.40;;;5.20;99.90;;;;;;4975886;28;20170;-76
2021/12/10 04:08:24;;;;;;;1.15;0.50;;;5.20;99.90;;;;;;4974512;28;20170;-77
2021/12/10 04:10:51;;;;;;;2.08;0.52;;;5.30;99.90;;;;;;4975653;28;20770;-77
2021/12/10 04:13:18;;;;;;;1.38;0.50;;;5.30;99.90;;;;;;4975798;28;20224;-76
2021/12/10 04:15:44;;;;;;;0.90;0.68;;;5.20;99.90;;;;;;4975481;28;20166;-80
2021/12/10 04:18:11;;;;;;;0.43;0.40;;;5.40;99.90;;;;;;4975583;28;20221;-76
2021/12/10 04:20:37;;;;;;;0.57;0.32;;;5.40;99.90;;;;;;4975462;28;20246;-76
2021/12/10 04:23:06;;;;;;;0.88;0.43;;;5.40;99.90;;;;;;4975165;28;20198;-80
2021/12/10 04:25:32;;;;;;;0.57;0.40;;;5.40;99.90;;;;;;4975375;28;20253;-76
2021/12/10 04:28:02;;;;;;;0.50;0.35;;;5.40;99.90;;;;;;4975314;28;20217;-76
2021/12/10 04:30:35;;;;;;;0.43;0.43;;;5.30;99.90;;;;;;4975358;28;20181;-78
2021/12/10 04:33:03;;;;;;;0.98;0.60;;;5.20;99.90;;;;;;4975240;28;20243;-78
2021/12/10 04:35:28;;;;;;;0.60;0.50;;;5.20;99.90;;;;;;4975109;28;20174;-88
2021/12/10 04:37:54;;;;;;;0.30;0.30;;;5.20;99.90;;;;;;4975255;28;20196;-78
2021/12/10 04:40:21;;;;;;;0.47;0.40;;;5.20;99.90;;;;;;4975156;28;20557;-80
2021/12/10 04:42:48;;;;;;;1.33;0.70;;;5.10;99.90;;;;;;4974919;28;20360;-77
2021/12/10 04:45:16;;;;;;;1.33;0.50;;;5.10;99.90;;;;;;4974913;28;20655;-77
2021/12/10 04:47:42;;;;;;;0.73;0.47;;;5.10;99.90;;;;;;4957467;28;20190;-78
2021/12/10 04:50:09;;;;;;;1.10;0.50;;;5.00;99.90;;;;;;4975086;28;20174;-77
2021/12/10 04:52:34;;;;;;;0.98;0.70;;;5.00;99.90;;;;;;4974831;28;20201;-82
2021/12/10 04:55:03;;;;;;;0.47;0.40;;;5.00;99.90;;;;;;4975542;28;20169;-77
2021/12/10 04:57:28;;;;;;;0.85;0.30;;;5.20;99.90;;;;;;4974584;28;20185;-77
2021/12/10 04:59:54;;;;;;;0.85;0.50;;;5.30;99.90;;;;;;4973863;28;20690;-77
2021/12/10 05:02:19;;;;;;;0.30;0.30;;;5.20;99.90;;;;;;4974941;28;20189;-78
2021/12/10 05:04:47;;;;;;;0.50;0.50;;;5.10;99.90;;;;;;4975012;28;20536;-77
2021/12/10 05:07:14;;;;;;;0.90;0.50;;;5.10;99.90;;;;;;4957290;28;20240;-84
2021/12/10 05:09:40;;;;;;;0.95;0.45;;;4.90;99.90;;;;;;4973842;28;20228;-80
2021/12/10 05:12:08;;;;;;;0.38;0.38;;;5.10;99.90;;;;;;4975283;28;20227;-81
2021/12/10 05:14:35;;;;;;;0.40;0.40;;;5.00;99.90;;;;;;4975009;28;20739;-79
2021/12/10 05:17:05;;;;;;;0.95;0.40;;;5.20;99.90;;;;;;4974203;28;20562;-77
2021/12/10 05:19:32;;;;;;;0.32;0.32;;;5.10;99.90;;;;;;4974729;28;20667;-78
2021/12/10 05:21:59;;;;;;;0.43;0.32;;;5.10;99.90;;;;;;4974679;28;20170;-77
2021/12/10 05:24:26;;;;;;;0.38;0.30;;;5.20;99.90;;;;;;4975852;28;20205;-77
2021/12/10 05:26:53;;;;;;;0.88;0.50;;;5.00;99.90;;;;;;4974932;28;20197;-77
2021/12/10 05:29:18;;;;;;;0.95;0.47;;;5.00;99.90;;;;;;4976364;28;20191;-77
2021/12/10 05:31:45;;;;;;;0.88;0.60;;;5.00;99.90;;;;;;4975354;28;20692;-86
2021/12/10 05:34:12;;;;;;;0.68;0.55;;;5.10;99.90;;;;;;4975430;28;20170;-80
2021/12/10 05:36:38;;;;;;;0.43;0.43;;;5.20;99.90;;;;;;4974868;28;20196;-77
2021/12/10 05:39:06;;;;;;;0.38;0.38;;;5.50;99.90;;;;;;4974413;28;20174;-83
2021/12/10 05:41:32;;;;;;;0.77;0.55;;;5.60;99.90;;;;;;4974686;28;20189;-77
2021/12/10 05:43:58;;;;;;;3.53;2.35;;;5.80;99.90;;;;;;4974540;28;20265;-78
2021/12/10 05:46:24;;;;;;;0.50;0.40;;;5.80;99.90;;;;;;4973862;28;20273;-77
2021/12/10 05:48:50;;;;;;;1.70;0.80;;;5.60;99.90;;;;;;4957402;28;20549;-84
2021/12/10 05:51:16;;;;;;;0.60;0.60;;;5.50;99.90;;;;;;4975320;28;20158;-77
2021/12/10 05:53:43;;;;;;;0.40;0.40;;;5.30;99.90;;;;;;4974782;28;20220;-78
2021/12/10 05:56:09;;;;;;;1.65;0.50;;;5.20;99.90;;;;;;4974925;28;20166;-84
2021/12/10 05:58:35;;;;;;;1.00;0.75;;;5.20;99.90;;;;;;4974975;28;20166;-79
2021/12/10 06:01:09;;;;;;;0.60;0.60;;;5.30;99.90;;;;;;4974379;28;20507;-78
2021/12/10 06:03:37;;;;;;;1.17;0.52;;;5.40;99.90;;;;;;4974535;28;20296;-82
2021/12/10 06:06:04;;;;;;;0.77;0.50;;;5.30;99.90;;;;;;4974539;28;20174;-83
2021/12/10 06:08:30;;;;;;;0.43;0.38;;;5.30;99.90;;;;;;4974939;28;20737;-86
2021/12/10 06:10:57;;;;;;;2.33;0.55;;;5.40;99.90;;;;;;4974523;28;20626;-77
2021/12/10 06:13:24;;;;;;;0.40;0.40;;;5.20;99.90;;;;;;4975012;28;20209;-77
2021/12/10 06:15:49;;;;;;;5.20;0.60;;;5.10;99.90;;;;;;4976069;28;20170;-85
2021/12/10 06:18:16;;;;;;;1.50;0.57;;;5.20;99.90;;;;;;4976097;28;20557;-77
2021/12/10 06:20:46;;;;;;;0.40;0.40;;;5.40;99.90;;;;;;4975147;28;20300;-86
2021/12/10 06:23:12;;;;;;;0.50;0.50;;;5.40;99.90;;;;;;4974562;28;20205;-89
2021/12/10 06:25:39;;;;;;;0.40;0.40;;;5.40;99.90;;;;;;4973644;28;20620;-78
2021/12/10 06:28:05;;;;;;;0.30;0.30;;;5.30;99.90;;;;;;4975009;28;20203;-79
2021/12/10 06:30:34;;;;;;;0.50;0.50;;;5.10;99.90;;;;;;4974520;28;20180;-82
2021/12/10 06:33:02;;;;;;;0.40;0.40;;;5.00;99.90;;;;;;4978408;28;20174;-87
2021/12/10 06:35:31;;;;;;;1.58;0.50;;;5.10;99.90;;;;;;4961238;28;20222;-84
2021/12/10 06:37:58;;;;;;;1.52;0.85;;;5.10;99.90;;;;;;4977855;28;20277;-79
2021/12/10 06:40:26;;;;;;;2.35;0.88;;;5.00;99.90;;;;;;4978968;28;20189;-85
2021/12/10 06:42:52;;;;;;;0.73;0.73;;;5.00;99.90;;;;;;4969336;28;20201;-88
2021/12/10 06:45:22;;;;;;;1.27;0.60;;;5.00;99.90;;;;;;4995439;28;20174;-79
2021/12/10 06:47:50;;;;;;;10.63;0.60;;;4.90;99.90;;;;;;4995892;28;20213;-78
2021/12/10 06:50:22;;;;;;;0.75;0.50;;;5.00;99.90;;;;;;4995828;28;20241;-85
2021/12/10 06:52:48;;;;;;;0.52;0.52;;;5.00;99.90;;;;;;4983209;28;20196;-80
2021/12/10 06:55:15;;;;;;;0.60;0.50;;;4.90;99.90;;;;;;4976982;28;20177;-78
2021/12/10 06:57:41;;;;;;;0.60;0.50;;;5.00;99.90;;;;;;4980982;28;20185;-80
2021/12/10 07:00:33;;;;;;;0.50;0.50;;;5.00;99.90;;;;;;4978171;28;20177;-84
2021/12/10 07:02:58;;;;;;;0.65;0.60;;;5.20;99.90;;;;;;4978065;28;20194;-81
2021/12/10 07:05:25;;;;;;;0.40;0.40;;;5.40;99.90;;;;;;4979840;28;20259;-84
2021/12/10 07:07:51;;;;;;;0.57;0.50;;;5.60;99.90;;;;;;4977575;28;20185;-79
2021/12/10 07:10:18;;;;;;;0.70;0.60;;;5.30;99.90;;;;;;4961064;28;20170;-79
2021/12/10 07:12:45;;;;;;;0.50;0.50;;;5.20;99.90;;;;;;4977518;28;20241;-77
2021/12/10 07:15:13;;;;;;;0.40;0.40;;;5.10;99.90;;;;;;4977596;28;20631;-79
2021/12/10 07:17:44;;;;;;;3.97;0.57;;;5.00;99.90;;;;;;4977679;28;20767;-78
2021/12/10 07:20:12;;;;;;;3.20;0.40;;;5.10;99.90;;;;;;4977999;28;20177;-77
2021/12/10 07:22:38;;;;;;;1.23;0.85;;;5.10;99.90;;;;;;4977715;28;20193;-85
2021/12/10 07:25:05;;;;;;;0.63;0.50;;;5.10;99.90;;;;;;4959796;28;20201;-80
2021/12/10 07:27:32;;;;;;;0.50;0.40;;;5.00;99.90;;;;;;4977420;28;20282;-78
2021/12/10 07:29:58;;;;;;;0.65;0.47;;;4.90;99.90;;;;;;4960496;28;20217;-86
2021/12/10 07:32:23;;;;;;;0.93;0.60;;;5.00;99.90;;;;;;4977207;28;20170;-82
2021/12/10 07:34:49;;;;;;;1.10;0.68;;;5.10;99.90;;;;;;4976765;28;20224;-80
2021/12/10 07:37:14;;;;;;;0.40;0.40;;;5.00;99.90;;;;;;4976916;28;20189;-80
2021/12/10 07:39:40;;;;;;;0.40;0.40;;;4.90;99.90;;;;;;4976612;28;20252;-79
2021/12/10 07:42:08;;;;;;;1.33;0.85;;;5.20;99.90;;;;;;4976667;28;20205;-82
2021/12/10 07:44:37;;;;;;;0.57;0.57;;;5.00;99.90;;;;;;4976203;28;20214;-79
2021/12/10 07:47:08;;;;;;;0.52;0.52;;;4.90;99.90;;;;;;4976138;28;20186;-82
2021/12/10 07:49:37;;;;;;;0.40;0.40;;;4.90;99.90;;;;;;4955063;28;20201;-81
2021/12/10 07:52:06;;;;;;;0.60;0.55;;;5.00;99.90;;;;;;4985596;28;20505;-80
2021/12/10 07:54:32;;;;;;;0.65;0.45;;;5.00;99.90;;;;;;4958670;28;20688;-81
2021/12/10 07:56:57;;;;;;;0.32;0.32;;;4.90;99.90;;;;;;4975876;28;20285;-79
2021/12/10 07:59:23;;;;;;;0.50;0.50;;;4.90;99.90;;;;;;4976162;28;20213;-84
2021/12/10 08:01:49;;;;;;;0.40;0.40;;;5.00;99.90;;;;;;4977691;28;20170;-78
2021/12/10 08:04:15;;;;;;;0.75;0.75;;;5.00;99.90;;;;;;4979155;28;20217;-81
2021/12/10 08:06:42;;;;;;;0.65;0.60;;;4.90;99.90;;;;;;4981667;28;20194;-86
2021/12/10 08:09:08;;;;;;;1.90;1.55;;;4.80;99.90;;;;;;4976641;28;20181;-80
2021/12/10 08:11:35;;;;;;;0.68;0.60;;;4.90;99.90;;;;;;4981599;28;20706;-79
2021/12/10 08:14:01;;;;;;;0.77;0.77;;;4.90;99.90;;;;;;4982667;28;20181;-83
2021/12/10 08:16:30;;;;;;;0.47;0.47;;;4.70;99.90;;;;;;4981410;28;20193;-86
2021/12/10 08:18:57;;;;;;;0.52;0.52;;;4.80;99.90;;;;;;4964424;28;20229;-82
2021/12/10 08:21:24;;;;;;;0.50;0.50;;;4.80;99.90;;;;;;4968682;28;20540;-81
2021/12/10 08:23:53;;;;;;;0.75;0.55;;;4.90;99.90;;;;;;4970837;28;20538;-79
2021/12/10 08:26:20;;;;;;;0.50;0.50;;;4.90;99.90;;;;;;4962300;28;20190;-80
2021/12/10 08:28:46;;;;;;;0.47;0.47;;;4.90;99.90;;;;;;4976460;28;20247;-82
2021/12/10 08:31:16;;;;;;;4.80;1.35;;;4.90;99.90;;;;;;4975339;28;20173;-79
2021/12/10 08:33:46;;;;;;;0.63;0.63;;;4.90;99.90;;;;;;4971530;28;20178;-78
2021/12/10 08:36:12;;;;;;;0.50;0.50;;;5.00;99.90;;;;;;4975462;28;20162;-88
2021/12/10 08:38:39;;;;;;;1.35;0.80;;;4.80;99.90;;;;;;4974766;28;20620;-81
2021/12/10 08:41:09;;;;;;;0.60;0.60;;;4.80;99.90;;;;;;4974731;28;20182;-79
2021/12/10 08:43:36;;;;;;;0.60;0.60;;;5.00;99.90;;;;;;4974856;28;20629;-80
2021/12/10 08:46:04;;;;;;;0.93;0.70;;;5.00;99.90;;;;;;4974869;28;20642;-78
2021/12/10 08:48:30;;;;;;;0.93;0.80;;;5.00;99.90;;;;;;4975423;28;20209;-83
2021/12/10 08:51:00;;;;;;;1.70;0.85;;;5.00;99.90;;;;;;4975404;28;20193;-84
2021/12/10 08:53:25;;;;;;;0.90;0.90;;;5.00;99.90;;;;;;4974877;28;20184;-80
2021/12/10 08:55:55;;;;;;;0.95;0.88;;;5.00;99.90;;;;;;4974329;28;20177;-80
2021/12/10 08:58:20;;;;;;;1.10;0.80;;;5.20;99.90;;;;;;4974435;28;20185;-80
2021/12/10 09:00:52;;;;;;;1.17;1.08;;;5.10;99.90;;;;;;4974302;28;20249;-80
2021/12/10 09:03:17;;;;;;;1.00;1.00;;;5.10;99.90;;;;;;4973344;28;20205;-80
2021/12/10 09:05:43;;;;;;;1.23;1.13;;;4.90;99.90;;;;;;4965708;28;20182;-79
2021/12/10 09:08:10;;;;;;;1.40;1.30;;;4.60;99.90;;;;;;4954350;29;20198;-79
2021/12/10 09:10:45;;;;;;;4.15;1.30;;;4.90;99.90;;;;;;4954548;29;20319;-79
2021/12/10 09:13:14;;;;;;;4.43;1.15;;;5.10;99.90;;;;;;4970030;28;20170;-79
2021/12/10 09:15:49;;;;;;;1.40;1.30;;;5.10;99.90;;;;;;4969819;28;20177;-79
2021/12/10 09:18:16;;;;;;;1.40;1.30;;;5.00;99.90;;;;;;4972805;28;20203;-81
2021/12/10 09:20:45;;;;;;;3.17;1.33;;;5.00;99.90;;;;;;4971552;28;20273;-79
2021/12/10 09:23:14;;;;;;;1.40;1.10;;;4.80;99.90;;;;;;4972427;28;20674;-82
2021/12/10 09:25:41;;;;;;;4.53;1.60;;;4.90;99.90;;;;;;4971331;28;20262;-79
2021/12/10 09:28:08;;;;;;;6.28;1.15;;;4.90;99.90;;;;;;4972403;28;20244;-78
2021/12/10 09:30:37;;;;;;;1.90;1.80;;;4.90;99.90;;;;;;4973442;28;20250;-79
2021/12/10 09:33:03;;;;;;;1.85;1.70;;;4.90;99.90;;;;;;4972198;28;20169;-79
2021/12/10 09:35:32;;;;;;;1.52;1.42;;;4.90;99.90;;;;;;4947746;29;20667;-79
2021/12/10 09:37:58;;;;;;;1.17;1.08;;;5.00;99.90;;;;;;4961573;28;20292;-80
2021/12/10 09:40:31;;;;;;;1.23;1.13;;;5.10;99.90;;;;;;4973623;28;20177;-84
2021/12/10 09:42:56;;;;;;;1.40;1.15;;;5.30;99.90;;;;;;4957181;28;20218;-79
2021/12/10 09:45:26;;;;;;;1.20;1.20;;;5.40;99.90;;;;;;4965043;28;20188;-78
2021/12/10 09:47:52;;;;;;;2.00;1.35;;;5.30;99.90;;;;;;4954342;29;20638;-79
2021/12/10 09:50:21;;;;;;;2.35;1.52;;;5.40;99.90;;;;;;4963602;28;20201;-82
2021/12/10 09:52:46;;;;;;;1.52;1.42;;;5.40;99.90;;;;;;4970978;28;20256;-85
2021/12/10 09:55:15;;;;;;;1.52;1.42;;;5.30;99.90;;;;;;4973161;28;20626;-82
2021/12/10 09:57:42;;;;;;;1.33;1.23;;;5.40;99.90;;;;;;4964898;28;20268;-78
2021/12/10 10:00:13;;;;;;;1.52;1.40;;;5.50;99.90;;;;;;4991651;28;20185;-78
2021/12/10 10:02:40;;;;;;;1.60;1.30;;;5.70;99.90;;;;;;4993750;28;20201;-84
2021/12/10 10:05:07;;;;;;;1.50;1.40;;;5.80;99.90;;;;;;4988179;28;20204;-81
2021/12/10 10:07:35;;;;;;;6.55;1.85;;;5.80;99.90;;;;;;4974943;28;20193;-85
2021/12/10 10:10:10;;;;;;;2.58;2.38;;;5.70;99.90;;;;;;4993234;28;20178;-78
2021/12/10 10:12:39;;;;;;;1.92;1.60;;;5.70;99.90;;;;;;4980722;28;20256;-85
2021/12/10 10:15:09;;;;;;;2.38;1.67;;;5.90;99.90;;;;;;4959808;28;20552;-81
2021/12/10 10:17:35;;;;;;;3.13;1.60;;;5.70;99.90;;;;;;4975328;28;20204;-80
2021/12/10 10:20:01;;;;;;;1.67;1.58;;;5.90;99.90;;;;;;4975204;28;20166;-78
2021/12/10 10:22:29;;;;;;;1.83;1.55;;;5.70;99.90;;;;;;4975192;28;20180;-82
2021/12/10 10:24:56;;;;;;;1.45;1.30;;;5.90;99.90;;;;;;4975184;28;20628;-79
2021/12/10 10:27:28;;;;;;;5.90;1.88;;;5.60;99.90;;;;;;4976006;28;20217;-79
2021/12/10 10:30:04;;;;;;;1.55;1.40;;;5.30;99.90;;;;;;4976399;28;20177;-80
2021/12/10 10:32:32;;;;;;;2.92;1.98;;;5.50;99.90;;;;;;4975279;28;20161;-80
2021/12/10 10:35:04;;;;;;;1.40;1.30;;;5.50;99.90;;;;;;4977094;28;20170;-84
2021/12/10 10:37:32;;;;;;;1.45;1.20;;;5.30;99.90;;;;;;4978454;28;20213;-80
2021/12/10 10:39:59;;;;;;;1.50;1.40;;;5.00;99.90;;;;;;4978000;28;20177;-85
2021/12/10 10:42:27;;;;;;;2.72;1.67;;;4.80;99.90;;;;;;4977378;28;20225;-80
2021/12/10 10:44:56;;;;;;;2.10;1.55;;;5.10;99.90;;;;;;4977673;28;20178;-86
2021/12/10 10:47:23;;;;;;;1.67;1.58;;;5.20;99.90;;;;;;4977986;28;20644;-81
2021/12/10 10:49:57;;;;;;;4.20;2.00;;;5.30;99.90;;;;;;4976835;28;20181;-79
2021/12/10 10:52:33;;;;;;;1.60;1.50;;;5.30;99.90;;;;;;4977400;28;20201;-81
2021/12/10 10:55:16;;;;;;;1.52;1.42;;;5.40;99.90;;;;;;4964608;28;20681;-79
2021/12/10 10:58:10;;;;;;;2.42;1.88;;;5.60;99.90;;;;;;4957603;29;20262;-81
2021/12/10 11:00:58;;;;;;;2.72;1.83;;;5.70;99.90;;;;;;4965750;28;20660;-79
2021/12/10 11:03:35;;;;;;;2.90;2.33;;;5.80;99.90;;;;;;4957372;29;20285;-79
2021/12/10 11:06:06;;;;;;;6.32;2.28;;;5.70;99.90;;;;;;4957534;29;20257;-79
2021/12/10 11:08:38;;;;;;;2.35;1.80;;;5.60;99.90;;;;;;4956182;29;20232;-78
2021/12/10 11:11:06;;;;;;;2.67;2.45;;;5.60;99.90;;;;;;4973446;28;20178;-78
2021/12/10 11:13:32;;;;;;;2.75;1.90;;;5.60;99.90;;;;;;4976157;28;20177;-79
2021/12/10 11:16:08;;;;;;;3.53;2.30;;;5.30;99.90;;;;;;4975603;28;20260;-78
2021/12/10 11:18:51;;;;;;;2.72;2.25;;;5.30;99.90;;;;;;4975859;28;20169;-78
2021/12/10 11:21:36;;;;;;;2.47;2.28;;;5.10;99.90;;;;;;4957142;29;20189;-79
2021/12/10 11:24:13;;;;;;;5.07;2.15;;;5.30;99.90;;;;;;4939053;29;20252;-79
2021/12/10 11:27:03;;;;;;;6.05;2.35;;;5.40;99.90;;;;;;4956768;29;20646;-80
2021/12/10 11:29:37;;;;;;;7.55;2.30;;;5.30;99.90;;;;;;4962554;28;20637;-78
2021/12/10 11:32:30;;;;;;;2.95;2.65;;;5.30;99.90;;;;;;4962407;28;20236;-79
2021/12/10 11:35:26;;;;;;;4.38;3.45;;;5.20;99.90;;;;;;4986857;28;20166;-78
2021/12/10 11:38:05;;;;;;;3.42;2.72;;;5.10;99.90;;;;;;4994010;28;20186;-81
2021/12/10 11:40:47;;;;;;;8.98;3.65;;;5.00;99.90;;;;;;4977540;29;20214;-78
2021/12/10 11:43:31;;;;;;;3.22;2.92;;;5.00;99.90;;;;;;4962230;28;20217;-79
2021/12/10 11:46:29;;;;;;;3.97;2.80;;;5.00;99.90;;;;;;4958716;29;20171;-80
2021/12/10 11:49:06;;;;;;;6.22;3.10;;;5.00;99.90;;;;;;4957467;29;20254;-81
2021/12/10 11:52:06;;;;;;;4.72;3.20;;;5.10;99.90;;;;;;4956743;29;20188;-81
2021/12/10 11:54:40;;;;;;;3.35;3.05;;;5.00;99.90;;;;;;4954926;29;20191;-82
2021/12/10 11:57:17;;;;;;;4.35;3.38;;;5.00;99.90;;;;;;4956951;29;20253;-81
2021/12/10 11:59:46;;;;;;;3.10;2.80;;;5.00;99.90;;;;;;4956457;29;20178;-81
2021/12/10 12:02:23;;;;;;;3.80;3.03;;;5.00;99.90;;;;;;4956699;29;20175;-80
2021/12/10 12:04:56;;;;;;;3.20;2.55;;;5.00;99.90;;;;;;4956636;29;20210;-82
2021/12/10 12:07:30;;;;;;;5.40;4.03;;;5.10;99.90;;;;;;4956192;29;20190;-84
2021/12/10 12:10:16;;;;;;;6.07;3.90;;;5.10;99.90;;;;;;4956096;29;20174;-81
2021/12/10 12:12:49;;;;;;;8.13;4.03;;;5.00;99.90;;;;;;4956033;29;20172;-81
2021/12/10 12:15:35;;;;;;;3.97;3.67;;;5.00;99.90;;;;;;4939799;29;20536;-78
2021/12/10 12:18:10;;;;;;;4.85;4.35;;;5.10;99.90;;;;;;4956095;29;20683;-79
2021/12/10 12:20:44;;;;;;;4.95;4.45;;;5.00;99.90;;;;;;4956156;29;20158;-80
2021/12/10 12:26:10;;;;;;;8.15;5.38;;;5.00;99.90;;;;;;4957012;29;20307;-82
2021/12/10 12:28:45;;;;;;;9.15;3.78;;;5.10;99.90;;;;;;4955881;29;20178;-80
2021/12/10 12:31:16;;;;;;;5.43;4.38;;;5.20;99.90;;;;;;4954770;29;20186;-82
2021/12/10 12:33:59;;;;;;;5.30;4.78;;;5.10;99.90;;;;;;4955447;29;20685;-80
2021/12/10 12:36:48;;;;;;;10.38;4.13;;;5.30;99.90;;;;;;4938868;29;20195;-79
2021/12/10 12:39:27;;;;;;;4.07;3.65;;;5.20;99.90;;;;;;4951823;29;20178;-82
2021/12/10 12:41:53;;;;;;;4.25;3.70;;;5.40;99.90;;;;;;4954505;29;20185;-79
2021/12/10 12:44:39;;;;;;;4.93;4.43;;;5.20;99.90;;;;;;4953023;29;20578;-79
2021/12/10 12:47:17;;;;;;;6.88;5.47;;;5.20;99.90;;;;;;4954547;29;20195;-81
2021/12/10 12:49:48;;;;;;;4.70;4.28;;;5.10;99.90;;;;;;4955755;29;20201;-80
2021/12/10 12:52:36;;;;;;;5.82;5.28;;;5.10;99.90;;;;;;4955728;29;20170;-81
2021/12/10 12:55:15;;;;;;;8.20;5.22;;;5.10;99.90;;;;;;4954935;28;20630;-80
2021/12/10 12:57:49;;;;;;;5.80;5.30;;;4.70;99.90;;;;;;4955305;29;20190;-81
2021/12/10 13:00:26;;;;;;;7.13;6.38;;;4.90;99.90;;;;;;4955455;29;20210;-78
2021/12/10 13:02:55;;;;;;;6.63;6.03;;;4.80;99.90;;;;;;4955352;29;20545;-79
2021/12/10 13:05:48;;;;;;;7.47;6.72;;;4.80;99.90;;;;;;4954926;29;20698;-79
2021/12/10 13:08:20;;;;;;;7.60;6.75;;;4.70;99.90;;;;;;4955697;29;20186;-80
2021/12/10 13:11:00;;;;;;;8.85;7.60;;;4.70;99.90;;;;;;4938097;29;20174;-82
2021/12/10 13:13:42;;;;;;;8.65;7.80;;;4.70;99.90;;;;;;4938080;29;20177;-81
2021/12/10 13:16:08;;;;;;;11.15;7.68;;;4.80;99.90;;;;;;4956086;29;20580;-82
2021/12/10 13:18:37;;;;;;;10.27;8.40;;;4.90;99.90;;;;;;4955718;29;20376;-81
2021/12/10 13:21:04;;;;;;;10.38;9.32;;;4.80;99.90;;;;;;4956265;29;20177;-82
2021/12/10 13:23:30;;;;;;;9.98;9.00;;;4.80;99.90;;;;;;4955280;29;20297;-82